Aérodrome :
LOGIN :

S'inscrire | Disclaimer

   EN    FR    IT 

 










Légende :    VFR   VFR Marginal   IFR   IFR Intensif   IFR Très Intensif
Visi : 
Plafond : 
>= 8 km
>= 3000ft
5 à 8 km
1000 à 3000 ft
1500m à 5 km
500 à 1000 ft
800 à 1500m
200 à 500 ft
< 800m
< 200 ft
Symboles :   Orages  Brouillard  Fortes neiges  Fortes précipitations  Vent > 20 kt
SIGMETs :   Divers  Orages  Givrage  Turbulence  Onde Orograph.  Cendres Volcan.







- Altitude de l'aérodrome : 11 ft
- Code IATA : MJV


LELC - Murcia San Javier

DERNIER METAR :
  • 220730Z 31010KT 9999 SCT048 15/10 Q1001 NOSIG

METARs EXPIRÉS :
  • 220700Z 31009KT 9999 OVC048 14/10 Q1001 NOSIG
  • 220630Z 31009KT CAVOK 14/10 Q1001 NOSIG
  • 220600Z 30009KT CAVOK 13/10 Q1001 NOSIG
  • 220530Z 30008KT CAVOK 13/10 Q1001 NOSIG
  • 220500Z 31009KT 280V340 9999 -RA SCT050 13/10 Q1001 NOSIG

TAF TAF LELC
Valide du 22 à 06h jusqu'au 23 à 06h UTC


220500Z 2206/2306 32012KT 9999 SCT030 TX19/2215Z TN13/2304Z
BECMG 2216/2218 23010KT
PROB40
TEMPO 2206/2215 3000 SHRA FEW030CB
Pas de NOTAMs connus pour ce terrain.
1 SIGMET publié pour la FIR Barcelona (LECB) :
 
Orages noyés dans la masse
LECB SIGMET 1 VALID 220637/220800 LEVA
LECB BARCELONA FIR/UIR EMBD TS OBS AT 0637Z WI N4045 E00149 - N4137 E004 - N4219 E00334 - N4239 E00107 - N4045 E00149 TOP FL360 MOV NW NC=



MET'MAP, la Météo Aéronautique d'un coup d'oeil ! - Copyright ORBIFLY Décembre 2007 - Disclaimer

ORBIFLY MET'MAP TEAM :

Programmation & Développement : Alexandra Zaïnal
Conception & Développement : Baudouin d'Aumeries
Co-Programmation & Développement : Marc-Olivier Méhu
Soutien technique & logistique : Manuel Goepfert

Contact : metmap@orbifly.com




SOURCES & CREDITS :

   NOAA